YBCR weather

Batchelor Airport
Northern Territory, Australia

Public forecast

Using degrees Celsius for public forecast. Weather courtesy of forecast.io.

METAR (pilot weather report)

Closest report is Darwin International Airport, 40.2 nm (74.4 km) NNW. Retrieved 2019/04/23 09:30 UTC (20 minutes ago):

YPDN 230930Z 04004KT CAVOK 30/19 Q1010 NOSIG

TAF (pilot weather forecast)

Closest forecast is Darwin International Airport, 40.2 nm (74.4 km) NNW. Retrieved 2019/04/23 06:00 UTC (4 hours ago):

TAF YPDN 230459Z 2306/2412 07014KT CAVOK FM230700 03008KT CAVOK FM232000 12006KT CAVOK FM232300 11014KT CAVOK FM240400 07014KT CAVOK